createdAt,value
2022-09-16T00:01:40.752Z,12.23
2022-09-16T00:04:08.747Z,12.63
2022-09-16T00:06:36.703Z,11.80
2022-09-16T00:09:04.871Z,12.10
2022-09-16T00:11:34.795Z,11.77
2022-09-16T00:14:03.159Z,11.80
2022-09-16T00:16:31.406Z,11.40
2022-09-16T00:19:01.954Z,11.13
2022-09-16T00:21:30.596Z,11.50
2022-09-16T00:23:58.785Z,12.50
2022-09-16T00:26:26.959Z,12.57
2022-09-16T00:28:55.150Z,13.40
2022-09-16T00:31:23.314Z,11.50
2022-09-16T00:33:51.369Z,13.00
2022-09-16T00:36:21.183Z,11.80
2022-09-16T00:38:52.133Z,12.10
2022-09-16T00:41:21.373Z,13.30
2022-09-16T00:43:55.906Z,11.87
2022-09-16T00:46:28.004Z,11.10
2022-09-16T00:48:56.078Z,11.70
2022-09-16T00:51:26.032Z,11.97
2022-09-16T00:53:57.939Z,11.77
2022-09-16T00:56:27.386Z,12.03
2022-09-16T00:59:02.459Z,12.70
2022-09-16T01:01:30.972Z,11.03
2022-09-16T01:04:01.775Z,11.17
2022-09-16T01:06:32.256Z,11.23
2022-09-16T01:09:00.823Z,11.77
2022-09-16T01:11:29.402Z,14.37
2022-09-16T01:14:18.471Z,13.30
2022-09-16T01:16:50.547Z,13.03
2022-09-16T01:19:33.369Z,14.60
2022-09-16T01:22:11.576Z,13.40
2022-09-16T01:24:50.502Z,12.50
2022-09-16T01:27:40.644Z,13.50
2022-09-16T01:30:32.482Z,14.07
2022-09-16T01:33:05.044Z,12.90
2022-09-16T01:35:47.314Z,12.70
2022-09-16T01:38:31.009Z,13.90
2022-09-16T01:41:02.306Z,12.90
2022-09-16T01:43:39.263Z,12.60
2022-09-16T01:46:18.047Z,12.87
2022-09-16T01:48:53.844Z,13.60
2022-09-16T01:51:26.975Z,13.70
2022-09-16T01:54:03.732Z,15.20
2022-09-16T01:56:34.289Z,15.30
2022-09-16T01:59:06.437Z,14.70
2022-09-16T02:01:37.996Z,13.47
2022-09-16T02:04:09.882Z,13.67
2022-09-16T02:06:39.442Z,14.30
2022-09-16T02:09:10.746Z,13.53
2022-09-16T02:11:39.507Z,13.20
2022-09-16T02:14:10.539Z,13.90
2022-09-16T02:16:43.360Z,14.10
2022-09-16T02:19:14.220Z,13.13
2022-09-16T02:21:45.905Z,12.60
2022-09-16T02:24:17.565Z,13.50
2022-09-16T02:26:48.570Z,13.47
2022-09-16T02:29:19.198Z,11.70
2022-09-16T02:31:51.290Z,12.27
2022-09-16T02:34:48.871Z,12.10
2022-09-16T02:37:20.276Z,11.27
2022-09-16T02:39:51.250Z,11.80
2022-09-16T02:42:19.321Z,11.40
2022-09-16T02:44:47.864Z,11.43
2022-09-16T02:47:23.310Z,11.83
2022-09-16T02:49:54.776Z,11.60
2022-09-16T02:52:26.550Z,11.57
2022-09-16T02:54:57.908Z,13.27
2022-09-16T02:57:25.955Z,11.30
2022-09-16T02:59:54.762Z,12.87
2022-09-16T03:02:24.362Z,12.17
2022-09-16T03:04:52.478Z,13.23
2022-09-16T03:07:20.487Z,13.10
2022-09-16T03:09:49.291Z,13.30
2022-09-16T03:12:29.648Z,13.90
2022-09-16T03:15:11.623Z,12.37
2022-09-16T03:17:52.588Z,11.90
2022-09-16T03:20:24.580Z,12.50
2022-09-16T03:22:56.963Z,13.10
2022-09-16T03:25:34.455Z,11.97
2022-09-16T03:28:06.314Z,13.40
2022-09-16T03:30:37.233Z,12.40
2022-09-16T03:33:10.876Z,12.77
2022-09-16T03:35:41.950Z,13.07
2022-09-16T03:38:10.300Z,14.13
2022-09-16T03:40:38.739Z,14.97
2022-09-16T03:43:11.994Z,12.37
2022-09-16T03:45:42.722Z,12.57
2022-09-16T03:48:13.026Z,12.30
2022-09-16T03:50:41.762Z,13.37
2022-09-16T03:53:10.002Z,15.03
2022-09-16T03:55:38.081Z,13.70
2022-09-16T03:58:06.119Z,11.07
2022-09-16T04:00:34.185Z,13.80
2022-09-16T04:03:03.367Z,11.90
2022-09-16T04:05:32.811Z,11.90
2022-09-16T04:08:00.789Z,15.10
2022-09-16T04:10:28.792Z,12.43
2022-09-16T04:12:58.630Z,12.63
2022-09-16T04:15:26.752Z,15.47
2022-09-16T04:17:56.208Z,14.37
2022-09-16T04:20:24.876Z,14.17
2022-09-16T04:22:54.271Z,15.80
2022-09-16T04:25:22.330Z,13.60
2022-09-16T04:27:50.355Z,12.27
2022-09-16T04:30:18.815Z,13.20
2022-09-16T04:32:46.904Z,15.70
2022-09-16T04:35:44.560Z,13.77
2022-09-16T04:38:14.085Z,12.57
2022-09-16T04:40:42.092Z,12.70
2022-09-16T04:43:10.275Z,11.80
2022-09-16T04:45:38.313Z,11.80
2022-09-16T04:48:06.387Z,12.47
2022-09-16T04:50:34.389Z,13.57
2022-09-16T04:53:02.404Z,14.10
2022-09-16T04:55:32.379Z,14.40
2022-09-16T04:58:00.570Z,14.00
2022-09-16T05:00:28.547Z,12.97
2022-09-16T05:02:56.599Z,13.97
2022-09-16T05:05:24.606Z,14.00
2022-09-16T05:07:53.749Z,12.80
2022-09-16T05:10:21.726Z,14.10
2022-09-16T05:12:53.445Z,11.73
2022-09-16T05:15:21.761Z,13.10
2022-09-16T05:17:51.685Z,13.70
2022-09-16T05:20:20.410Z,13.37
2022-09-16T05:22:51.078Z,13.70
2022-09-16T05:25:19.244Z,12.07
2022-09-16T05:27:47.250Z,12.47
2022-09-16T05:30:17.409Z,11.50
2022-09-16T05:32:45.502Z,11.67
2022-09-16T05:35:13.803Z,12.40
2022-09-16T05:37:41.803Z,13.87
2022-09-16T05:40:10.403Z,12.70
2022-09-16T05:42:38.498Z,13.23
2022-09-16T05:45:07.820Z,12.40
2022-09-16T05:47:37.230Z,14.27
2022-09-16T05:50:05.841Z,12.00
2022-09-16T05:52:33.828Z,12.37
2022-09-16T05:55:01.828Z,12.57
2022-09-16T05:57:29.907Z,11.60
2022-09-16T05:59:59.427Z,12.27
2022-09-16T06:02:27.542Z,12.90
2022-09-16T06:04:57.054Z,11.70
2022-09-16T06:07:25.103Z,12.77
2022-09-16T06:09:53.171Z,11.20
2022-09-16T06:12:21.209Z,11.63
2022-09-16T06:14:49.305Z,11.97
2022-09-16T06:17:17.818Z,12.43
2022-09-16T06:19:46.184Z,12.77
2022-09-16T06:22:15.568Z,12.97
2022-09-16T06:24:43.567Z,11.43
2022-09-16T06:27:11.541Z,12.87
2022-09-16T06:29:39.617Z,13.60
2022-09-16T06:32:07.693Z,11.83
2022-09-16T06:34:35.701Z,12.30
2022-09-16T06:37:03.730Z,12.27
2022-09-16T06:39:33.107Z,13.00
2022-09-16T06:42:01.120Z,12.03
2022-09-16T06:44:41.477Z,12.77
2022-09-16T06:47:09.553Z,11.40
2022-09-16T06:49:37.542Z,11.80
2022-09-16T06:52:09.533Z,11.27
2022-09-16T06:54:38.975Z,11.70
2022-09-16T06:57:12.013Z,11.13
2022-09-16T06:59:40.412Z,11.03
2022-09-16T07:02:10.158Z,11.70
2022-09-16T07:04:38.230Z,11.50
2022-09-16T07:07:09.666Z,25.15
2022-09-16T07:09:39.936Z,13.10
2022-09-16T07:12:08.913Z,11.90
2022-09-16T07:14:37.072Z,12.53
2022-09-16T07:17:05.180Z,11.70
2022-09-16T07:19:33.291Z,11.27
2022-09-16T07:22:01.319Z,10.80
2022-09-16T07:24:29.358Z,11.33
2022-09-16T07:26:58.768Z,10.30
2022-09-16T07:29:27.674Z,10.47
2022-09-16T07:31:55.754Z,10.23
2022-09-16T07:34:23.803Z,10.53
2022-09-16T07:36:52.067Z,11.03
2022-09-16T07:39:21.234Z,11.30
2022-09-16T07:41:49.537Z,9.80
2022-09-16T07:44:20.060Z,10.67
2022-09-16T07:46:48.438Z,10.23
2022-09-16T07:49:17.197Z,10.30
2022-09-16T07:51:45.550Z,9.90
2022-09-16T07:54:15.006Z,11.00
2022-09-16T07:56:44.280Z,9.87
2022-09-16T07:59:17.721Z,10.47
2022-09-16T08:01:49.165Z,10.57
2022-09-16T08:04:18.358Z,10.10
2022-09-16T08:06:46.644Z,10.00
2022-09-16T08:09:38.717Z,11.10
2022-09-16T08:12:05.733Z,10.10
2022-09-16T08:14:33.927Z,10.37
2022-09-16T08:17:03.482Z,10.07
2022-09-16T08:19:31.592Z,11.20
2022-09-16T08:21:59.599Z,10.83
2022-09-16T08:24:27.735Z,10.27
2022-09-16T08:29:25.901Z,10.63
2022-09-16T08:31:54.068Z,10.73
2022-09-16T08:34:23.671Z,11.20
2022-09-16T08:36:51.776Z,10.30
2022-09-16T08:39:20.990Z,9.87
2022-09-16T08:42:06.621Z,10.30
2022-09-16T08:44:42.047Z,10.10
2022-09-16T08:47:16.605Z,10.50
2022-09-16T08:49:47.511Z,9.40
2022-09-16T08:52:20.162Z,9.10
2022-09-16T08:54:50.944Z,9.63
2022-09-16T08:57:23.945Z,9.43
2022-09-16T08:59:56.067Z,8.80
2022-09-16T09:02:30.309Z,8.40
2022-09-16T09:05:00.200Z,8.00
2022-09-16T09:07:35.120Z,6.97
2022-09-16T09:10:10.213Z,7.20
2022-09-16T09:12:42.370Z,7.40
2022-09-16T09:15:28.401Z,6.67
2022-09-16T09:18:06.107Z,6.67
2022-09-16T09:20:44.414Z,7.20
2022-09-16T09:23:25.696Z,6.87
2022-09-16T09:25:59.416Z,5.97
2022-09-16T09:28:56.698Z,6.90
2022-09-16T09:31:30.566Z,6.57
2022-09-16T09:34:03.928Z,5.53
2022-09-16T09:36:46.789Z,5.57
2022-09-16T09:39:44.198Z,5.50
2022-09-16T09:42:17.792Z,5.30
2022-09-16T09:44:51.884Z,4.50
2022-09-16T09:47:24.034Z,4.80
2022-09-16T09:49:54.337Z,5.00
2022-09-16T09:52:27.855Z,4.83
2022-09-16T09:54:56.988Z,5.03
2022-09-16T09:57:30.483Z,5.80
2022-09-16T10:00:02.503Z,5.27
2022-09-16T10:02:44.948Z,5.33
2022-09-16T10:05:22.202Z,4.87
2022-09-16T10:07:53.794Z,5.30
2022-09-16T10:10:23.975Z,5.60
2022-09-16T10:12:52.871Z,5.90
2022-09-16T10:15:23.278Z,6.40
2022-09-16T10:17:52.254Z,6.10
2022-09-16T10:20:28.426Z,5.77
2022-09-16T10:23:00.236Z,6.57
2022-09-16T10:25:29.192Z,6.40
2022-09-16T10:27:58.384Z,6.50
2022-09-16T10:30:34.202Z,7.90
2022-09-16T10:33:04.948Z,5.80
2022-09-16T10:35:34.642Z,4.97
2022-09-16T10:38:07.722Z,5.60
2022-09-16T10:40:35.742Z,5.00
2022-09-16T10:43:05.509Z,5.00
2022-09-16T10:45:36.820Z,4.30
2022-09-16T10:48:08.802Z,4.80
2022-09-16T10:50:36.832Z,4.90
2022-09-16T10:53:23.184Z,5.10
2022-09-16T10:55:59.058Z,5.50
2022-09-16T10:58:27.193Z,5.50
2022-09-16T11:01:03.995Z,5.50
2022-09-16T11:03:44.693Z,5.33
2022-09-16T11:06:22.901Z,5.20
2022-09-16T11:09:00.016Z,4.80
2022-09-16T11:11:42.391Z,4.97
2022-09-16T11:14:17.532Z,5.10
2022-09-16T11:16:55.819Z,5.03
2022-09-16T11:19:28.628Z,4.40
2022-09-16T11:22:08.196Z,5.33
2022-09-16T11:24:56.410Z,5.47
2022-09-16T11:27:35.444Z,5.13
2022-09-16T11:30:10.694Z,4.83
2022-09-16T11:33:06.190Z,5.17
2022-09-16T11:35:59.476Z,5.10
2022-09-16T11:38:42.291Z,5.03
2022-09-16T11:41:20.778Z,5.17
2022-09-16T11:44:01.105Z,5.70
2022-09-16T11:46:33.618Z,5.47
2022-09-16T11:49:11.491Z,5.90
2022-09-16T11:51:55.871Z,6.20
2022-09-16T11:54:40.466Z,6.20
2022-09-16T11:57:15.150Z,6.60
2022-09-16T11:59:48.478Z,6.43
2022-09-16T12:02:26.657Z,6.90
2022-09-16T12:04:59.234Z,6.30
2022-09-16T12:07:31.292Z,6.90
2022-09-16T12:10:02.111Z,7.80
2022-09-16T12:12:35.254Z,7.60
2022-09-16T12:15:06.326Z,7.60
2022-09-16T12:17:37.014Z,9.40
2022-09-16T12:20:10.793Z,7.90
2022-09-16T12:22:43.480Z,8.20
2022-09-16T12:25:14.915Z,8.20
2022-09-16T12:27:47.778Z,8.70
2022-09-16T12:30:18.829Z,9.17
2022-09-16T12:32:56.507Z,9.87
2022-09-16T12:35:28.766Z,9.67
2022-09-16T12:37:57.626Z,10.07
2022-09-16T12:40:28.139Z,9.90
2022-09-16T12:43:24.995Z,8.20
2022-09-16T12:46:13.665Z,8.43
2022-09-16T12:49:01.967Z,8.30
2022-09-16T12:51:56.639Z,8.07
2022-09-16T12:55:07.124Z,8.27
2022-09-16T12:57:45.898Z,7.83
2022-09-16T13:00:20.745Z,7.57
2022-09-16T13:02:51.975Z,8.20
2022-09-16T13:05:26.292Z,7.10
2022-09-16T13:07:58.341Z,6.90
2022-09-16T13:10:53.963Z,6.90
2022-09-16T13:13:22.105Z,6.33
2022-09-16T13:15:57.907Z,6.10
2022-09-16T13:18:39.751Z,6.03
2022-09-16T13:21:13.366Z,6.20
2022-09-16T13:23:44.377Z,5.63
2022-09-16T13:26:12.485Z,5.93
2022-09-16T13:28:43.363Z,6.47
2022-09-16T13:31:19.847Z,5.80
2022-09-16T13:33:49.777Z,5.43
2022-09-16T13:36:31.873Z,6.17
2022-09-16T13:39:01.884Z,5.70
2022-09-16T13:41:35.791Z,6.07
2022-09-16T13:44:05.505Z,5.67
2022-09-16T13:46:36.781Z,5.90
2022-09-16T13:49:13.252Z,6.37
2022-09-16T13:51:43.198Z,6.30
2022-09-16T13:54:28.058Z,6.00
2022-09-16T13:57:14.939Z,5.97
2022-09-16T14:02:37.856Z,5.40
2022-09-16T14:05:31.063Z,5.60
2022-09-16T14:08:04.908Z,5.40
2022-09-16T14:10:38.556Z,5.87
2022-09-16T14:13:12.450Z,5.30
2022-09-16T14:15:43.256Z,5.67
2022-09-16T14:18:15.378Z,5.40
2022-09-16T14:20:54.101Z,5.70
2022-09-16T14:23:25.242Z,5.20
2022-09-16T14:25:55.563Z,5.27
2022-09-16T14:28:25.487Z,5.10
2022-09-16T14:30:56.021Z,5.60
2022-09-16T14:33:28.696Z,5.13
2022-09-16T14:35:57.383Z,5.13
2022-09-16T14:38:45.420Z,5.50
2022-09-16T14:41:21.078Z,4.90
2022-09-16T14:43:49.177Z,5.30
2022-09-16T14:46:18.441Z,5.20
2022-09-16T14:48:48.055Z,5.23
2022-09-16T14:51:21.349Z,4.90
2022-09-16T14:54:11.807Z,5.70
2022-09-16T14:56:40.575Z,4.73
2022-09-16T14:59:12.419Z,5.10
2022-09-16T15:01:40.917Z,5.20
2022-09-16T15:04:18.558Z,13.30
2022-09-16T15:06:52.106Z,5.83
2022-09-16T15:09:24.512Z,5.60
2022-09-16T15:11:55.431Z,5.70
2022-09-16T15:14:23.937Z,5.40
2022-09-16T15:16:54.498Z,5.37
2022-09-16T15:19:26.384Z,5.50
2022-09-16T15:21:54.658Z,5.27
2022-09-16T15:24:24.910Z,4.90
2022-09-16T15:26:53.809Z,5.30
2022-09-16T15:29:32.042Z,5.23
2022-09-16T15:32:18.213Z,5.07
2022-09-16T15:34:48.120Z,5.47
2022-09-16T15:37:31.276Z,5.13
2022-09-16T15:40:10.651Z,5.60
2022-09-16T15:42:39.019Z,5.70
2022-09-16T15:45:17.323Z,5.80
2022-09-16T15:47:58.069Z,5.37
2022-09-16T15:50:29.680Z,5.23
2022-09-16T15:53:01.194Z,5.70
2022-09-16T15:55:36.491Z,5.53
2022-09-16T15:58:07.941Z,5.23
2022-09-16T16:01:00.868Z,5.70
2022-09-16T16:03:31.650Z,6.13
2022-09-16T16:06:04.906Z,6.93
2022-09-16T16:08:45.859Z,5.73
2022-09-16T16:11:15.566Z,5.77
2022-09-16T16:13:44.280Z,5.63
2022-09-16T16:16:14.394Z,6.37
2022-09-16T16:18:43.626Z,5.50
2022-09-16T16:21:14.565Z,5.40
2022-09-16T16:23:42.682Z,5.20
2022-09-16T16:26:11.619Z,5.00
2022-09-16T16:28:39.659Z,5.87
2022-09-16T16:31:15.883Z,5.17
2022-09-16T16:33:45.703Z,13.07
2022-09-16T16:36:17.019Z,5.43
2022-09-16T16:38:46.441Z,5.80
2022-09-16T16:41:16.876Z,5.67
2022-09-16T16:43:45.164Z,6.10
2022-09-16T16:46:13.515Z,5.63
2022-09-16T16:48:41.726Z,5.87
2022-09-16T16:51:11.839Z,6.10
2022-09-16T16:53:41.369Z,5.90
2022-09-16T16:56:14.855Z,5.73
2022-09-16T16:58:44.053Z,5.83
2022-09-16T17:01:13.982Z,5.83
2022-09-16T17:03:44.867Z,6.03
2022-09-16T17:06:14.235Z,6.00
2022-09-16T17:08:43.764Z,5.93
2022-09-16T17:11:13.245Z,6.20
2022-09-16T17:13:43.144Z,6.23
2022-09-16T17:16:12.476Z,6.90
2022-09-16T17:18:42.996Z,6.53
2022-09-16T17:21:12.521Z,5.80
2022-09-16T17:23:40.979Z,6.33
2022-09-16T17:26:11.460Z,6.17
2022-09-16T17:28:40.955Z,5.60
2022-09-16T17:31:12.432Z,5.23
2022-09-16T17:33:43.833Z,5.90
2022-09-16T17:36:14.089Z,6.60
2022-09-16T17:38:42.301Z,6.50
2022-09-16T17:41:13.093Z,6.13
2022-09-16T17:43:44.494Z,5.90
2022-09-16T17:46:15.946Z,6.67
2022-09-16T17:48:44.242Z,6.30
2022-09-16T17:51:12.527Z,6.30
2022-09-16T17:53:41.223Z,6.40
2022-09-16T17:56:12.921Z,7.00
2022-09-16T17:58:42.543Z,6.40
2022-09-16T18:01:12.218Z,11.65
2022-09-16T18:03:41.606Z,7.97
2022-09-16T18:06:11.308Z,7.20
2022-09-16T18:08:40.618Z,6.87
2022-09-16T18:11:09.712Z,7.07
2022-09-16T18:13:39.730Z,6.77
2022-09-16T18:16:11.281Z,6.50
2022-09-16T18:18:41.052Z,6.70
2022-09-16T18:21:10.604Z,7.37
2022-09-16T18:23:38.631Z,7.37
2022-09-16T18:26:07.793Z,7.30
2022-09-16T18:28:58.005Z,7.53
2022-09-16T18:31:26.523Z,6.30
2022-09-16T18:33:55.382Z,6.13
2022-09-16T18:36:25.518Z,7.67
2022-09-16T18:38:54.266Z,6.40
2022-09-16T18:41:24.297Z,6.90
2022-09-16T18:43:54.460Z,8.20
2022-09-16T18:46:26.662Z,6.70
2022-09-16T18:48:56.942Z,6.87
2022-09-16T18:51:26.707Z,7.00
2022-09-16T18:53:57.884Z,6.83
2022-09-16T18:56:26.763Z,6.23
2022-09-16T18:59:20.023Z,6.70
2022-09-16T19:01:48.644Z,6.23
2022-09-16T19:04:19.954Z,6.70
2022-09-16T19:06:49.854Z,7.70
2022-09-16T19:09:20.181Z,7.83
2022-09-16T19:11:48.316Z,7.23
2022-09-16T19:14:16.682Z,7.30
2022-09-16T19:16:46.238Z,6.80
2022-09-16T19:19:15.438Z,6.83
2022-09-16T19:21:45.284Z,6.77
2022-09-16T19:24:15.023Z,7.10
2022-09-16T19:26:44.054Z,7.20
2022-09-16T19:29:13.241Z,6.87
2022-09-16T19:31:42.415Z,7.57
2022-09-16T19:34:11.070Z,7.83
2022-09-16T19:36:39.853Z,7.07
2022-09-16T19:39:10.077Z,7.03
2022-09-16T19:41:39.524Z,6.80
2022-09-16T19:44:10.791Z,6.97
2022-09-16T19:46:40.195Z,7.30
2022-09-16T19:49:08.762Z,7.70
2022-09-16T19:51:37.758Z,7.23
2022-09-16T19:54:06.143Z,7.57
2022-09-16T19:56:35.546Z,7.83
2022-09-16T19:59:03.618Z,7.30
2022-09-16T20:01:33.437Z,6.93
2022-09-16T20:04:03.670Z,7.67
2022-09-16T20:06:36.136Z,7.70
2022-09-16T20:09:06.717Z,7.30
2022-09-16T20:11:38.077Z,7.10
2022-09-16T20:14:08.419Z,8.40
2022-09-16T20:16:38.901Z,7.70
2022-09-16T20:19:08.854Z,7.70
2022-09-16T20:21:37.940Z,7.70
2022-09-16T20:24:07.882Z,8.37
2022-09-16T20:26:37.511Z,7.70
2022-09-16T20:29:05.659Z,8.83
2022-09-16T20:31:35.440Z,8.00
2022-09-16T20:34:03.816Z,7.80
2022-09-16T20:36:32.971Z,8.20
2022-09-16T20:39:01.269Z,8.30
2022-09-16T20:41:30.971Z,10.03
2022-09-16T20:44:00.825Z,9.60
2022-09-16T20:46:31.144Z,9.33
2022-09-16T20:49:00.729Z,8.87
2022-09-16T20:51:31.253Z,8.30
2022-09-16T20:54:06.314Z,9.40
2022-09-16T20:56:38.282Z,9.60
2022-09-16T20:59:08.736Z,9.67
2022-09-16T21:01:38.090Z,10.40
2022-09-16T21:04:07.329Z,8.73
2022-09-16T21:06:36.410Z,10.00
2022-09-16T21:09:06.222Z,10.17
2022-09-16T21:11:35.372Z,9.00
2022-09-16T21:14:06.397Z,10.03
2022-09-16T21:16:37.315Z,10.33
2022-09-16T21:19:09.297Z,9.60
2022-09-16T21:21:39.360Z,10.40
2022-09-16T21:24:08.595Z,10.20
2022-09-16T21:26:38.311Z,9.73
2022-09-16T21:29:09.902Z,11.37
2022-09-16T21:31:40.961Z,11.00
2022-09-16T21:34:12.910Z,9.67
2022-09-16T21:36:40.996Z,12.47
2022-09-16T21:39:09.209Z,11.00
2022-09-16T21:41:37.535Z,12.33
2022-09-16T21:44:05.833Z,12.27
2022-09-16T21:46:36.968Z,12.57
2022-09-16T21:49:06.632Z,12.90
2022-09-16T21:51:38.293Z,12.27
2022-09-16T21:54:07.483Z,14.97
2022-09-16T21:56:37.763Z,13.10
2022-09-16T21:59:06.161Z,11.87
2022-09-16T22:01:34.396Z,16.07
2022-09-16T22:04:04.714Z,14.20
2022-09-16T22:06:34.911Z,12.97
2022-09-16T22:09:04.394Z,12.20
2022-09-16T22:11:33.507Z,14.87
2022-09-16T22:14:02.399Z,11.53
2022-09-16T22:16:31.652Z,9.93
2022-09-16T22:19:01.727Z,10.93
2022-09-16T22:21:33.228Z,9.47
2022-09-16T22:24:03.217Z,10.17
2022-09-16T22:26:31.931Z,11.03
2022-09-16T22:29:00.704Z,8.87
2022-09-16T22:31:30.227Z,7.97
2022-09-16T22:34:00.679Z,7.50
2022-09-16T22:36:30.293Z,11.57
2022-09-16T22:39:00.770Z,9.80
2022-09-16T22:41:30.459Z,10.07
2022-09-16T22:43:58.726Z,9.67
2022-09-16T22:46:29.084Z,11.67
2022-09-16T22:48:58.376Z,9.07
2022-09-16T22:51:26.928Z,11.47
2022-09-16T22:53:55.193Z,13.00
2022-09-16T22:56:25.091Z,11.33
2022-09-16T22:58:55.282Z,10.93
2022-09-16T23:01:25.544Z,11.47
2022-09-16T23:03:55.729Z,8.47
2022-09-16T23:06:24.823Z,9.63
2022-09-16T23:08:53.310Z,8.47
2022-09-16T23:11:23.691Z,10.10
2022-09-16T23:13:52.868Z,10.07
2022-09-16T23:16:24.414Z,9.90
2022-09-16T23:18:52.438Z,9.40
2022-09-16T23:21:22.293Z,10.37
2022-09-16T23:23:52.131Z,9.17
2022-09-16T23:26:22.041Z,8.80
2022-09-16T23:28:52.644Z,8.20
2022-09-16T23:31:23.650Z,9.97
2022-09-16T23:33:51.809Z,11.60
2022-09-16T23:36:20.261Z,13.50
2022-09-16T23:38:49.057Z,12.13
2022-09-16T23:41:19.850Z,11.77
2022-09-16T23:43:48.930Z,13.27
2022-09-16T23:46:19.203Z,11.10
2022-09-16T23:48:51.004Z,9.07
2022-09-16T23:51:22.611Z,11.20
2022-09-16T23:53:54.192Z,9.00
2022-09-16T23:56:22.308Z,9.87
2022-09-16T23:58:50.949Z,13.50
